createdAt,value
2023-04-09T00:00:29.345Z,12.05
2023-04-09T00:02:57.418Z,9.55
2023-04-09T00:05:24.554Z,9.65
2023-04-09T00:07:52.122Z,8.65
2023-04-09T00:10:19.086Z,9.52
2023-04-09T00:12:46.238Z,13.68
2023-04-09T00:15:20.904Z,12.93
2023-04-09T00:17:56.652Z,12.80
2023-04-09T00:20:23.810Z,12.05
2023-04-09T00:22:52.107Z,8.50
2023-04-09T00:25:20.316Z,8.90
2023-04-09T00:27:47.465Z,9.05
2023-04-09T00:30:14.461Z,8.85
2023-04-09T00:32:41.854Z,9.15
2023-04-09T00:35:09.358Z,8.57
2023-04-09T00:37:36.872Z,8.45
2023-04-09T00:40:05.545Z,8.23
2023-04-09T00:42:38.388Z,9.80
2023-04-09T00:45:06.571Z,8.52
2023-04-09T00:47:35.373Z,7.80
2023-04-09T00:50:03.543Z,6.95
2023-04-09T00:52:31.377Z,10.27
2023-04-09T00:55:01.080Z,7.70
2023-04-09T00:57:29.051Z,8.25
2023-04-09T00:59:56.614Z,9.10
2023-04-09T01:02:23.605Z,6.25
2023-04-09T01:04:51.703Z,6.63
2023-04-09T01:07:18.712Z,7.18
2023-04-09T01:10:00.647Z,6.53
2023-04-09T01:12:47.195Z,9.15
2023-04-09T01:15:18.528Z,13.00
2023-04-09T01:18:11.772Z,13.18
2023-04-09T01:20:38.966Z,10.82
2023-04-09T01:23:33.821Z,12.30
2023-04-09T01:26:29.962Z,9.23
2023-04-09T01:28:57.889Z,8.43
2023-04-09T01:31:31.167Z,8.07
2023-04-09T01:34:00.939Z,12.00
2023-04-09T01:36:31.472Z,15.05
2023-04-09T01:39:01.835Z,8.25
2023-04-09T01:41:32.704Z,11.25
2023-04-09T01:44:02.052Z,7.93
2023-04-09T01:46:30.260Z,8.82
2023-04-09T01:48:58.240Z,10.85
2023-04-09T01:51:27.487Z,8.73
2023-04-09T01:53:55.178Z,8.30
2023-04-09T01:56:22.144Z,9.57
2023-04-09T01:58:49.422Z,7.78
2023-04-09T02:01:58.820Z,8.95
2023-04-09T02:04:52.415Z,6.15
2023-04-09T02:09:55.221Z,5.90
2023-04-09T02:12:24.372Z,5.70
2023-04-09T02:14:52.854Z,8.20
2023-04-09T02:17:22.926Z,7.93
2023-04-09T02:19:49.981Z,6.07
2023-04-09T02:22:17.461Z,7.60
2023-04-09T02:24:49.154Z,9.57
2023-04-09T02:27:16.978Z,6.22
2023-04-09T02:29:46.034Z,4.80
2023-04-09T02:32:13.805Z,11.52
2023-04-09T02:34:41.541Z,13.45
2023-04-09T02:37:09.097Z,7.75
2023-04-09T02:39:36.821Z,8.80
2023-04-09T02:42:08.244Z,8.77
2023-04-09T02:44:38.206Z,16.27
2023-04-09T02:47:05.599Z,18.55
2023-04-09T02:49:33.025Z,10.82
2023-04-09T02:52:00.767Z,14.15
2023-04-09T02:54:27.832Z,12.65
2023-04-09T02:56:55.427Z,10.40
2023-04-09T02:59:23.074Z,9.63
2023-04-09T03:01:52.584Z,13.00
2023-04-09T03:04:23.417Z,14.35
2023-04-09T03:06:55.366Z,13.50
2023-04-09T03:09:23.128Z,11.37
2023-04-09T03:11:52.283Z,40.58
2023-04-09T03:14:21.336Z,7.82
2023-04-09T03:16:49.801Z,9.27
2023-04-09T03:19:17.064Z,7.20
2023-04-09T03:21:45.588Z,6.88
2023-04-09T03:24:14.365Z,7.00
2023-04-09T03:26:43.898Z,6.05
2023-04-09T03:29:12.236Z,15.68
2023-04-09T03:31:40.441Z,24.42
2023-04-09T03:34:09.391Z,21.88
2023-04-09T03:36:40.219Z,13.80
2023-04-09T03:39:18.406Z,6.28
2023-04-09T03:41:48.040Z,7.38
2023-04-09T03:44:18.386Z,12.05
2023-04-09T03:47:09.959Z,11.43
2023-04-09T03:49:42.009Z,9.02
2023-04-09T03:52:24.289Z,6.35
2023-04-09T03:55:04.221Z,7.82
2023-04-09T03:57:33.982Z,7.90
2023-04-09T04:00:03.511Z,9.20
2023-04-09T04:02:41.977Z,7.72
2023-04-09T04:05:12.601Z,11.40
2023-04-09T04:07:47.025Z,9.82
2023-04-09T04:10:21.819Z,10.38
2023-04-09T04:12:50.334Z,10.15
2023-04-09T04:15:43.154Z,16.30
2023-04-09T04:18:15.085Z,16.88
2023-04-09T04:20:46.159Z,10.70
2023-04-09T04:23:15.284Z,10.02
2023-04-09T04:26:13.380Z,10.48
2023-04-09T04:28:43.134Z,8.38
2023-04-09T04:31:20.137Z,9.07
2023-04-09T04:33:48.090Z,9.90
2023-04-09T04:36:18.124Z,11.88
2023-04-09T04:38:53.632Z,10.77
2023-04-09T04:41:44.514Z,7.25
2023-04-09T04:44:23.111Z,14.68
2023-04-09T04:47:01.786Z,7.75
2023-04-09T04:49:31.030Z,15.65
2023-04-09T04:52:01.198Z,8.23
2023-04-09T04:54:30.744Z,10.10
2023-04-09T04:57:04.272Z,9.75
2023-04-09T04:59:42.662Z,9.18
2023-04-09T05:02:16.552Z,10.07
2023-04-09T05:05:11.757Z,8.55
2023-04-09T05:07:49.812Z,9.95
2023-04-09T05:10:19.551Z,13.40
2023-04-09T05:12:49.094Z,7.97
2023-04-09T05:18:01.976Z,7.70
2023-04-09T05:20:29.935Z,8.00
2023-04-09T05:23:06.782Z,4.72
2023-04-09T05:25:40.656Z,8.98
2023-04-09T05:28:14.560Z,7.20
2023-04-09T05:30:46.791Z,7.57
2023-04-09T05:33:14.887Z,5.75
2023-04-09T05:35:43.195Z,4.47
2023-04-09T05:38:11.416Z,5.53
2023-04-09T05:40:39.283Z,6.18
2023-04-09T05:43:12.402Z,6.82
2023-04-09T05:45:43.666Z,6.32
2023-04-09T05:48:11.766Z,5.30
2023-04-09T05:50:51.447Z,5.72
2023-04-09T05:53:25.651Z,6.68
2023-04-09T05:55:53.034Z,6.00
2023-04-09T05:58:24.526Z,8.20
2023-04-09T06:00:53.343Z,8.48
2023-04-09T06:03:21.288Z,8.18
2023-04-09T06:05:50.554Z,6.60
2023-04-09T06:08:18.194Z,5.45
2023-04-09T06:10:46.053Z,6.13
2023-04-09T06:13:13.794Z,6.47
2023-04-09T06:15:42.255Z,6.43
2023-04-09T06:18:10.594Z,6.07
2023-04-09T06:20:38.177Z,7.88
2023-04-09T06:23:10.713Z,5.28
2023-04-09T06:25:39.138Z,6.32
2023-04-09T06:28:06.207Z,7.10
2023-04-09T06:30:36.403Z,5.70
2023-04-09T06:33:04.816Z,4.70
2023-04-09T06:35:33.128Z,4.95
2023-04-09T06:38:00.966Z,4.88
2023-04-09T06:40:28.779Z,6.22
2023-04-09T06:42:57.017Z,6.60
2023-04-09T06:45:31.750Z,6.70
2023-04-09T06:48:01.431Z,4.18
2023-04-09T06:50:29.096Z,4.70
2023-04-09T06:52:58.202Z,5.40
2023-04-09T06:55:27.379Z,6.35
2023-04-09T06:57:55.036Z,5.25
2023-04-09T07:00:24.025Z,6.47
2023-04-09T07:02:53.263Z,5.50
2023-04-09T07:05:21.039Z,5.68
2023-04-09T07:07:50.412Z,6.88
2023-04-09T07:10:19.021Z,7.00
2023-04-09T07:12:49.041Z,6.25
2023-04-09T07:15:17.351Z,5.35
2023-04-09T07:17:45.248Z,7.32
2023-04-09T07:20:12.951Z,6.00
2023-04-09T07:22:40.674Z,8.57
2023-04-09T07:25:08.950Z,7.40
2023-04-09T07:27:36.691Z,7.93
2023-04-09T07:30:04.930Z,7.80
2023-04-09T07:32:32.999Z,9.75
2023-04-09T07:35:00.860Z,7.28
2023-04-09T07:37:29.488Z,6.60
2023-04-09T07:39:56.762Z,6.88
2023-04-09T07:42:25.293Z,8.32
2023-04-09T07:44:52.967Z,8.25
2023-04-09T07:47:21.386Z,7.93
2023-04-09T07:49:49.633Z,7.30
2023-04-09T07:52:17.187Z,7.85
2023-04-09T07:54:45.199Z,8.75
2023-04-09T07:57:13.170Z,7.20
2023-04-09T07:59:40.874Z,8.23
2023-04-09T08:02:09.877Z,8.25
2023-04-09T08:04:38.734Z,7.20
2023-04-09T08:07:07.092Z,6.43
2023-04-09T08:09:35.032Z,7.53
2023-04-09T08:12:02.973Z,7.20
2023-04-09T08:14:30.091Z,7.78
2023-04-09T08:16:58.256Z,7.07
2023-04-09T08:19:26.936Z,7.80
2023-04-09T08:21:54.751Z,6.35
2023-04-09T08:24:23.236Z,5.72
2023-04-09T08:26:50.996Z,6.03
2023-04-09T08:29:18.960Z,8.40
2023-04-09T08:31:46.830Z,6.05
2023-04-09T08:34:16.853Z,7.70
2023-04-09T08:36:47.882Z,7.60
2023-04-09T08:39:19.650Z,5.95
2023-04-09T08:41:51.032Z,12.18
2023-04-09T08:44:19.572Z,5.53
2023-04-09T08:46:47.172Z,6.05
2023-04-09T08:49:14.766Z,7.32
2023-04-09T08:51:47.403Z,5.22
2023-04-09T08:54:20.667Z,5.63
2023-04-09T08:56:48.994Z,6.75
2023-04-09T08:59:20.427Z,6.90
2023-04-09T09:01:54.950Z,5.32
2023-04-09T09:04:23.410Z,5.18
2023-04-09T09:06:53.704Z,5.78
2023-04-09T09:09:22.934Z,6.72
2023-04-09T09:11:52.104Z,7.07
2023-04-09T09:14:20.851Z,7.53
2023-04-09T09:16:58.388Z,4.93
2023-04-09T09:19:26.869Z,8.38
2023-04-09T09:21:58.750Z,5.32
2023-04-09T09:24:26.904Z,4.75
2023-04-09T09:26:54.734Z,5.65
2023-04-09T09:29:22.163Z,5.32
2023-04-09T09:31:52.011Z,4.38
2023-04-09T09:34:22.010Z,3.55
2023-04-09T09:36:50.205Z,7.90
2023-04-09T09:39:18.615Z,6.10
2023-04-09T09:41:47.601Z,3.22
2023-04-09T09:44:32.210Z,4.00
2023-04-09T09:46:59.985Z,3.05
2023-04-09T09:49:27.078Z,4.03
2023-04-09T09:52:00.285Z,3.55
2023-04-09T09:54:32.419Z,4.32
2023-04-09T09:57:05.118Z,3.42
2023-04-09T09:59:38.227Z,4.45
2023-04-09T10:02:08.129Z,4.15
2023-04-09T10:04:39.734Z,4.97
2023-04-09T10:07:09.129Z,2.42
2023-04-09T10:09:41.149Z,3.72
2023-04-09T10:14:39.639Z,4.53
2023-04-09T10:17:07.540Z,2.58
2023-04-09T10:19:41.855Z,4.57
2023-04-09T10:22:17.234Z,3.88
2023-04-09T10:24:46.710Z,3.25
2023-04-09T10:27:17.520Z,3.53
2023-04-09T10:29:47.079Z,3.05
2023-04-09T10:32:24.414Z,3.83
2023-04-09T10:34:53.127Z,2.35
2023-04-09T10:37:26.520Z,3.95
2023-04-09T10:39:55.244Z,2.95
2023-04-09T10:42:37.366Z,2.95
2023-04-09T10:45:09.150Z,3.50
2023-04-09T10:47:41.821Z,2.95
2023-04-09T10:50:29.765Z,3.78
2023-04-09T10:53:00.483Z,4.20
2023-04-09T10:55:39.155Z,4.38
2023-04-09T10:58:13.975Z,2.85
2023-04-09T11:00:43.528Z,4.05
2023-04-09T11:03:22.005Z,2.80
2023-04-09T11:06:11.167Z,5.00
2023-04-09T11:08:39.716Z,3.05
2023-04-09T11:11:09.107Z,4.10
2023-04-09T11:13:36.931Z,4.88
2023-04-09T11:16:07.534Z,5.57
2023-04-09T11:18:35.840Z,7.97
2023-04-09T11:21:07.186Z,5.45
2023-04-09T11:23:36.394Z,5.13
2023-04-09T11:26:04.282Z,3.70
2023-04-09T11:28:35.791Z,5.53
2023-04-09T11:31:07.463Z,4.38
2023-04-09T11:36:06.838Z,3.30
2023-04-09T11:38:38.976Z,3.45
2023-04-09T11:41:06.511Z,2.63
2023-04-09T11:43:37.032Z,5.40
2023-04-09T11:46:04.785Z,3.55
2023-04-09T11:48:33.018Z,5.43
2023-04-09T11:51:04.511Z,6.07
2023-04-09T11:53:33.033Z,2.60
2023-04-09T11:56:00.185Z,3.33
2023-04-09T11:58:28.408Z,4.22
2023-04-09T12:00:58.704Z,2.78
2023-04-09T12:03:30.514Z,2.90
2023-04-09T12:06:02.057Z,3.65
2023-04-09T12:08:30.157Z,6.17
2023-04-09T12:10:57.764Z,6.38
2023-04-09T12:13:34.214Z,2.70
2023-04-09T12:16:03.455Z,5.75
2023-04-09T12:18:31.482Z,5.18
2023-04-09T12:20:59.565Z,3.78
2023-04-09T12:23:26.777Z,3.22
2023-04-09T12:25:55.868Z,3.53
2023-04-09T12:28:23.180Z,3.58
2023-04-09T12:30:52.127Z,2.95
2023-04-09T12:33:19.703Z,2.85
2023-04-09T12:35:47.312Z,2.78
2023-04-09T12:38:15.703Z,5.63
2023-04-09T12:40:43.486Z,3.35
2023-04-09T12:43:12.492Z,3.90
2023-04-09T12:45:41.417Z,3.60
2023-04-09T12:48:09.502Z,3.70
2023-04-09T12:50:36.955Z,1.95
2023-04-09T12:53:04.047Z,3.08
2023-04-09T12:55:31.428Z,3.55
2023-04-09T12:57:58.570Z,4.00
2023-04-09T13:00:26.057Z,3.10
2023-04-09T13:02:56.174Z,2.75
2023-04-09T13:05:25.235Z,3.08
2023-04-09T13:07:53.008Z,2.67
2023-04-09T13:10:21.034Z,3.55
2023-04-09T13:12:48.647Z,3.92
2023-04-09T13:15:17.012Z,2.78
2023-04-09T13:17:44.947Z,2.45
2023-04-09T13:20:12.360Z,6.78
2023-04-09T13:22:39.958Z,5.15
2023-04-09T13:25:07.719Z,3.47
2023-04-09T13:27:35.098Z,3.10
2023-04-09T13:30:02.268Z,2.63
2023-04-09T13:32:29.931Z,3.53
2023-04-09T13:34:58.106Z,4.10
2023-04-09T13:37:26.266Z,3.30
2023-04-09T13:39:54.086Z,3.90
2023-04-09T13:42:22.747Z,3.33
2023-04-09T13:44:49.709Z,3.50
2023-04-09T13:47:18.460Z,5.07
2023-04-09T13:49:46.618Z,2.58
2023-04-09T13:52:15.873Z,4.65
2023-04-09T13:54:46.409Z,3.90
2023-04-09T13:57:13.445Z,4.25
2023-04-09T13:59:43.742Z,5.13
2023-04-09T14:02:11.707Z,3.53
2023-04-09T14:04:39.071Z,5.22
2023-04-09T14:07:06.888Z,3.85
2023-04-09T14:09:34.568Z,4.88
2023-04-09T14:12:02.259Z,5.57
2023-04-09T14:14:30.141Z,5.28
2023-04-09T14:16:57.702Z,5.20
2023-04-09T14:19:25.047Z,5.80
2023-04-09T14:21:55.929Z,8.10
2023-04-09T14:24:24.114Z,3.75
2023-04-09T14:26:53.787Z,9.20
2023-04-09T14:29:22.151Z,6.50
2023-04-09T14:31:50.060Z,8.73
2023-04-09T14:34:17.567Z,4.72
2023-04-09T14:36:44.738Z,5.47
2023-04-09T14:39:12.550Z,5.55
2023-04-09T14:41:39.953Z,6.63
2023-04-09T14:44:08.923Z,6.72
2023-04-09T14:46:37.774Z,6.45
2023-04-09T14:49:05.060Z,5.40
2023-04-09T14:51:32.494Z,6.07
2023-04-09T14:53:59.695Z,5.80
2023-04-09T14:56:27.425Z,4.88
2023-04-09T14:58:54.929Z,5.53
2023-04-09T15:01:22.890Z,4.75
2023-04-09T15:03:50.756Z,6.20
2023-04-09T15:06:17.812Z,5.72
2023-04-09T15:08:46.158Z,7.93
2023-04-09T15:11:17.886Z,5.70
2023-04-09T15:13:46.094Z,6.20
2023-04-09T15:16:24.515Z,9.18
2023-04-09T15:18:52.871Z,7.65
2023-04-09T15:21:20.934Z,5.32
2023-04-09T15:23:51.591Z,6.03
2023-04-09T15:26:19.210Z,5.82
2023-04-09T15:28:46.724Z,8.90
2023-04-09T15:31:14.605Z,8.00
2023-04-09T15:33:44.263Z,5.63
2023-04-09T15:36:12.814Z,6.40
2023-04-09T15:38:40.791Z,7.32
2023-04-09T15:41:08.717Z,5.80
2023-04-09T15:43:36.529Z,9.57
2023-04-09T15:46:11.519Z,6.70
2023-04-09T15:48:38.756Z,10.50
2023-04-09T15:51:06.226Z,9.73
2023-04-09T15:53:33.182Z,7.55
2023-04-09T15:56:00.680Z,8.77
2023-04-09T15:58:29.118Z,7.65
2023-04-09T16:00:57.250Z,11.00
2023-04-09T16:03:25.252Z,8.27
2023-04-09T16:05:52.242Z,10.02
2023-04-09T16:08:19.353Z,9.38
2023-04-09T16:10:46.106Z,9.32
2023-04-09T16:13:13.331Z,7.38
2023-04-09T16:15:40.619Z,8.65
2023-04-09T16:18:08.482Z,9.20
2023-04-09T16:20:36.714Z,7.65
2023-04-09T16:23:04.500Z,8.10
2023-04-09T16:25:32.110Z,7.82
2023-04-09T16:28:00.361Z,9.50
2023-04-09T16:30:29.258Z,9.05
2023-04-09T16:32:58.572Z,8.70
2023-04-09T16:35:26.432Z,8.27
2023-04-09T16:37:56.255Z,10.43
2023-04-09T16:40:24.706Z,8.50
2023-04-09T16:42:52.023Z,8.45
2023-04-09T16:45:19.278Z,11.68
2023-04-09T16:47:50.132Z,12.80
2023-04-09T16:50:19.622Z,9.13
2023-04-09T16:52:47.619Z,9.60
2023-04-09T16:55:16.005Z,10.57
2023-04-09T16:57:43.391Z,9.13
2023-04-09T17:00:14.174Z,10.30
2023-04-09T17:02:41.911Z,10.55
2023-04-09T17:05:09.745Z,14.45
2023-04-09T17:07:36.650Z,18.48
2023-04-09T17:10:03.531Z,13.75
2023-04-09T17:12:31.395Z,15.05
2023-04-09T17:14:58.798Z,13.18
2023-04-09T17:17:26.119Z,15.02
2023-04-09T17:19:53.627Z,12.70
2023-04-09T17:22:20.715Z,15.27
2023-04-09T17:24:50.067Z,13.05
2023-04-09T17:27:17.244Z,11.50
2023-04-09T17:29:44.508Z,11.35
2023-04-09T17:32:11.639Z,11.23
2023-04-09T17:34:38.901Z,12.98
2023-04-09T17:37:05.998Z,12.40
2023-04-09T17:39:33.447Z,14.98
2023-04-09T17:42:01.824Z,12.93
2023-04-09T17:44:29.144Z,11.90
2023-04-09T17:46:56.544Z,12.43
2023-04-09T17:49:23.854Z,15.55
2023-04-09T17:51:51.437Z,13.93
2023-04-09T17:54:18.578Z,13.63
2023-04-09T17:56:45.895Z,13.27
2023-04-09T17:59:13.696Z,13.90
2023-04-09T18:01:41.337Z,13.48
2023-04-09T18:04:08.580Z,17.52
2023-04-09T18:06:38.524Z,14.20
2023-04-09T18:09:05.643Z,17.38
2023-04-09T18:11:32.757Z,16.17
2023-04-09T18:14:00.136Z,13.40
2023-04-09T18:16:27.394Z,14.60
2023-04-09T18:18:55.272Z,14.15
2023-04-09T18:21:24.862Z,13.73
2023-04-09T18:23:52.357Z,11.32
2023-04-09T18:26:19.694Z,14.32
2023-04-09T18:28:46.618Z,13.68
2023-04-09T18:31:13.899Z,13.52
2023-04-09T18:33:41.382Z,20.75
2023-04-09T18:36:09.270Z,17.15
2023-04-09T18:38:37.096Z,34.50
2023-04-09T18:41:04.403Z,37.03
2023-04-09T18:43:31.554Z,52.47
2023-04-09T18:45:59.389Z,34.60
2023-04-09T18:48:26.764Z,49.58
2023-04-09T18:50:53.685Z,35.05
2023-04-09T18:53:21.144Z,26.70
2023-04-09T18:55:48.295Z,28.52
2023-04-09T18:58:16.340Z,28.17
2023-04-09T19:00:43.900Z,20.35
2023-04-09T19:03:12.424Z,21.38
2023-04-09T19:05:40.099Z,20.05
2023-04-09T19:08:07.635Z,21.17
2023-04-09T19:10:35.033Z,22.95
2023-04-09T19:13:04.570Z,26.35
2023-04-09T19:15:31.462Z,22.83
2023-04-09T19:17:58.466Z,22.58
2023-04-09T19:20:25.676Z,24.00
2023-04-09T19:22:54.649Z,26.15
2023-04-09T19:25:23.528Z,29.25
2023-04-09T19:27:50.960Z,29.27
2023-04-09T19:30:20.183Z,23.85
2023-04-09T19:32:47.269Z,29.38
2023-04-09T19:35:14.688Z,26.75
2023-04-09T19:37:41.804Z,19.27
2023-04-09T19:40:09.257Z,20.40
2023-04-09T19:42:36.473Z,25.85
2023-04-09T19:45:03.563Z,18.77
2023-04-09T19:47:30.953Z,23.35
2023-04-09T19:49:58.541Z,27.38
2023-04-09T19:52:26.351Z,19.30
2023-04-09T19:54:56.905Z,23.70
2023-04-09T19:57:26.636Z,18.98
2023-04-09T19:59:54.338Z,22.25
2023-04-09T20:02:21.527Z,27.10
2023-04-09T20:04:48.948Z,27.98
2023-04-09T20:07:16.345Z,25.58
2023-04-09T20:09:43.785Z,29.38
2023-04-09T20:12:10.798Z,30.27
2023-04-09T20:14:40.785Z,22.88
2023-04-09T20:17:09.854Z,22.10
2023-04-09T20:19:37.935Z,22.58
2023-04-09T20:22:05.162Z,21.33
2023-04-09T20:24:32.385Z,18.90
2023-04-09T20:27:00.252Z,26.45
2023-04-09T20:29:27.863Z,21.75
2023-04-09T20:31:54.938Z,24.35
2023-04-09T20:34:27.009Z,20.05
2023-04-09T20:36:55.820Z,18.88
2023-04-09T20:39:25.549Z,18.23
2023-04-09T20:41:56.875Z,18.83
2023-04-09T20:44:24.956Z,23.58
2023-04-09T20:46:52.238Z,19.17
2023-04-09T20:49:19.524Z,19.70
2023-04-09T20:51:46.829Z,17.08
2023-04-09T20:54:13.864Z,21.73
2023-04-09T20:56:41.212Z,18.35
2023-04-09T20:59:08.302Z,17.55
2023-04-09T21:01:36.468Z,19.95
2023-04-09T21:04:04.439Z,15.68
2023-04-09T21:06:31.901Z,19.30
2023-04-09T21:08:59.880Z,18.80
2023-04-09T21:11:27.146Z,20.92
2023-04-09T21:13:55.263Z,25.20
2023-04-09T21:16:23.599Z,22.52
2023-04-09T21:18:51.352Z,24.85
2023-04-09T21:21:19.324Z,21.65
2023-04-09T21:23:46.514Z,23.13
2023-04-09T21:26:15.293Z,18.70
2023-04-09T21:28:42.570Z,18.92
2023-04-09T21:31:11.244Z,19.88
2023-04-09T21:33:39.589Z,23.85
2023-04-09T21:36:08.132Z,17.05
2023-04-09T21:38:35.507Z,18.73
2023-04-09T21:41:03.053Z,19.25
2023-04-09T21:43:30.437Z,22.70
2023-04-09T21:45:57.918Z,20.77
2023-04-09T21:48:26.549Z,21.20
2023-04-09T21:50:54.034Z,19.92
2023-04-09T21:53:21.665Z,17.77
2023-04-09T21:55:49.309Z,19.55
2023-04-09T21:58:16.757Z,18.80
2023-04-09T22:00:44.298Z,22.45
2023-04-09T22:03:12.800Z,16.63
2023-04-09T22:05:40.028Z,20.80
2023-04-09T22:08:07.516Z,20.02
2023-04-09T22:10:34.606Z,17.15
2023-04-09T22:13:01.517Z,19.95
2023-04-09T22:15:29.363Z,20.10
2023-04-09T22:17:56.456Z,17.90
2023-04-09T22:20:25.184Z,24.10
2023-04-09T22:22:54.382Z,22.23
2023-04-09T22:25:22.598Z,20.40
2023-04-09T22:27:53.419Z,20.33
2023-04-09T22:30:24.608Z,20.25
2023-04-09T22:32:51.975Z,19.95
2023-04-09T22:35:19.530Z,24.65
2023-04-09T22:37:47.258Z,23.38
2023-04-09T22:40:16.321Z,22.02
2023-04-09T22:42:44.721Z,20.50
2023-04-09T22:45:13.008Z,23.52
2023-04-09T22:47:42.858Z,24.08
2023-04-09T22:50:11.754Z,19.08
2023-04-09T22:52:39.009Z,19.52
2023-04-09T22:55:06.634Z,20.48
2023-04-09T22:57:33.756Z,21.05
2023-04-09T23:00:00.870Z,19.67
2023-04-09T23:02:27.836Z,23.45
2023-04-09T23:04:55.349Z,20.35
2023-04-09T23:07:22.580Z,22.25
2023-04-09T23:09:49.751Z,24.33
2023-04-09T23:12:16.655Z,21.90
2023-04-09T23:14:44.036Z,20.33
2023-04-09T23:17:11.345Z,23.27
2023-04-09T23:19:38.285Z,18.38
2023-04-09T23:22:05.901Z,19.17
2023-04-09T23:24:33.080Z,18.58
2023-04-09T23:27:00.771Z,15.23
2023-04-09T23:29:27.641Z,18.73
2023-04-09T23:31:55.028Z,19.63
2023-04-09T23:34:22.009Z,18.20
2023-04-09T23:36:48.843Z,17.63
2023-04-09T23:39:15.726Z,18.70
2023-04-09T23:41:42.826Z,18.08
2023-04-09T23:44:10.169Z,21.40
2023-04-09T23:46:37.503Z,21.25
2023-04-09T23:49:04.629Z,18.20
2023-04-09T23:51:31.900Z,19.17
2023-04-09T23:53:58.795Z,19.52
2023-04-09T23:56:25.627Z,16.75
2023-04-09T23:58:52.615Z,19.27
